Canefield Airport

Fair with gusty winds
27oC (81oF)

Fair with gusty winds


Winds: Easterly @ 11kts / 20km/h gusting to 24kts / 44km/h

Humidity: 53%

Barometric Pressure: 1013 mb

Accumulated Rainfall for March: 13.3 mm

Updated: 18:00 local time (22:00 UTC)

Douglas-Charles Airport

Cloudy with slight haze
25oC (77oF)

Cloudy with slight haze


Winds: East south easterly @ 04kts / 07km/h

Humidity: 73%

Barometric Pressure: 1016 mb

Accumulated Rainfall for March: 53.6 mm

Updated: 20:00 local time (00:00 UTC)

Satellite Imagery

Satellite Imagery
Click image for larger view. (Source: National Hurricane Center).

Aviation Routine Report (METAR)

Douglas-Charles: METAR TDPD 260000Z 12004KT 9999 BKN017 25/20 Q1016=
Canefield: METAR TDCF 252200Z 10011G24KT 9999 -SHRA FEW019 27/18 Q1013=